GMTN/TTU METAR and TAF weather

Enter ICAO airport designator
Station Type Date Time Source
GMTN METAR 2023/03/25 13:00 UTC NOAA

GMTN 251300Z 08009KT 050V110 CAVOK 22/14 Q1021 NOSIG


Station Type Date Time Source
GMTN Decoded METAR 2023/03/25 13:00 UTC NOAA

Tetuan / Sania Ramel, Morocco (GMTN) 35-35N 005-20W 10M
Mar 25, 2023 - 09:00 AM EDT / 2023.03.25 1300 UTC
Wind: from the E (080 degrees) at 10 MPH (9 KT) (direction variable):0
Visibility: greater than 7 mile(s):0
Temperature: 71 F (22 C)
Dew Point: 57 F (14 C)
Relative Humidity: 60%
Pressure (altimeter): 30.15 in. Hg (1021 hPa)
ob: GMTN 251300Z 08009KT 050V110 CAVOK 22/14 Q1021 NOSIG
cycle: 13

Station Type Date Time Source
GMTN TAF 2021/07/02 12:21 UTC NOAA

TAF GMTN 021100Z 0212/0318 09008KT CAVOK
BECMG 0219/0223 26012KT

Example: see airport list